createdAt,value
2017-10-09T00:00:24.001Z,100
2017-10-09T00:01:26.418Z,100
2017-10-09T00:02:28.842Z,100
2017-10-09T00:03:31.617Z,100
2017-10-09T00:04:34.029Z,100
2017-10-09T00:05:36.461Z,100
2017-10-09T00:06:38.890Z,100
2017-10-09T00:07:41.310Z,100
2017-10-09T00:08:43.732Z,100
2017-10-09T00:09:46.147Z,100
2017-10-09T00:10:48.563Z,100
2017-10-09T00:11:50.990Z,100
2017-10-09T00:12:53.407Z,100
2017-10-09T00:13:55.824Z,100
2017-10-09T00:14:58.250Z,100
2017-10-09T00:16:00.681Z,100
2017-10-09T00:17:03.102Z,100
2017-10-09T00:18:05.870Z,100
2017-10-09T00:19:08.291Z,100
2017-10-09T00:20:10.718Z,100
2017-10-09T00:21:13.139Z,100
2017-10-09T00:22:15.561Z,100
2017-10-09T00:23:17.974Z,100
2017-10-09T00:24:20.735Z,100
2017-10-09T00:25:23.157Z,100
2017-10-09T00:26:25.577Z,100
2017-10-09T00:27:27.999Z,100
2017-10-09T00:28:30.426Z,100
2017-10-09T00:29:32.849Z,100
2017-10-09T00:30:35.281Z,100
2017-10-09T00:31:37.698Z,100
2017-10-09T00:32:40.113Z,100
2017-10-09T00:33:42.536Z,100
2017-10-09T00:34:44.959Z,100
2017-10-09T00:35:47.372Z,100
2017-10-09T00:36:49.796Z,100
2017-10-09T00:37:52.236Z,100
2017-10-09T00:38:54.641Z,100
2017-10-09T00:39:57.072Z,100
2017-10-09T00:40:59.493Z,100
2017-10-09T00:42:01.916Z,100
2017-10-09T00:43:04.346Z,100
2017-10-09T00:44:07.114Z,100
2017-10-09T00:45:09.527Z,100
2017-10-09T00:46:11.958Z,100
2017-10-09T00:47:14.371Z,100
2017-10-09T00:48:17.141Z,100
2017-10-09T00:49:19.566Z,100
2017-10-09T00:50:21.990Z,100
2017-10-09T00:51:24.406Z,100
2017-10-09T00:52:26.828Z,100
2017-10-09T00:53:29.244Z,100
2017-10-09T00:54:31.671Z,100
2017-10-09T00:55:34.094Z,100
2017-10-09T00:56:36.517Z,100
2017-10-09T00:57:38.943Z,100
2017-10-09T00:58:41.374Z,100
2017-10-09T00:59:43.800Z,100
2017-10-09T01:00:46.216Z,100
2017-10-09T01:01:48.653Z,100
2017-10-09T01:02:51.077Z,100
2017-10-09T01:03:53.480Z,100
2017-10-09T01:04:55.902Z,100
2017-10-09T01:05:58.325Z,100
2017-10-09T01:07:00.751Z,100
2017-10-09T01:08:03.173Z,100
2017-10-09T01:09:05.595Z,100
2017-10-09T01:10:08.017Z,100
2017-10-09T01:11:10.449Z,100
2017-10-09T01:12:12.868Z,100
2017-10-09T01:13:15.289Z,100
2017-10-09T01:14:17.700Z,100
2017-10-09T01:15:20.471Z,100
2017-10-09T01:16:22.885Z,100
2017-10-09T01:17:25.314Z,100
2017-10-09T01:18:27.729Z,100
2017-10-09T01:19:30.152Z,100
2017-10-09T01:20:32.574Z,100
2017-10-09T01:21:34.995Z,100
2017-10-09T01:22:37.406Z,100
2017-10-09T01:23:39.842Z,100
2017-10-09T01:24:42.258Z,100
2017-10-09T01:25:44.672Z,100
2017-10-09T01:26:47.097Z,100
2017-10-09T01:27:49.516Z,100
2017-10-09T01:28:51.937Z,100
2017-10-09T01:29:54.377Z,100
2017-10-09T01:30:56.795Z,100
2017-10-09T01:31:59.217Z,100
2017-10-09T01:33:01.636Z,100
2017-10-09T01:34:04.059Z,100
2017-10-09T01:35:06.469Z,100
2017-10-09T01:36:08.894Z,100
2017-10-09T01:37:11.665Z,100
2017-10-09T01:38:14.423Z,100
2017-10-09T01:39:16.849Z,100
2017-10-09T01:40:19.274Z,100
2017-10-09T01:41:21.692Z,100
2017-10-09T01:42:24.114Z,100
2017-10-09T01:43:26.532Z,100
2017-10-09T01:44:28.961Z,100
2017-10-09T01:45:31.389Z,100
2017-10-09T01:46:33.792Z,100
2017-10-09T01:47:36.208Z,100
2017-10-09T01:48:38.637Z,100
2017-10-09T01:49:41.046Z,100
2017-10-09T01:50:43.461Z,100
2017-10-09T01:51:45.887Z,100
2017-10-09T01:52:48.310Z,100
2017-10-09T01:53:50.739Z,100
2017-10-09T01:54:53.505Z,100
2017-10-09T01:55:55.916Z,100
2017-10-09T01:56:58.347Z,100
2017-10-09T01:58:01.117Z,100
2017-10-09T01:59:03.538Z,100
2017-10-09T02:00:05.954Z,100
2017-10-09T02:01:08.382Z,100
2017-10-09T02:02:10.805Z,100
2017-10-09T02:03:13.211Z,100
2017-10-09T02:04:15.643Z,100
2017-10-09T02:05:18.065Z,100
2017-10-09T02:06:20.485Z,100
2017-10-09T02:07:22.904Z,100
2017-10-09T02:08:25.320Z,100
2017-10-09T02:09:27.736Z,100
2017-10-09T02:10:30.169Z,100
2017-10-09T02:11:32.582Z,100
2017-10-09T02:12:35.002Z,100
2017-10-09T02:13:37.429Z,100
2017-10-09T02:14:39.858Z,100
2017-10-09T02:15:42.281Z,100
2017-10-09T02:16:44.700Z,100
2017-10-09T02:17:47.112Z,100
2017-10-09T02:18:49.531Z,100
2017-10-09T02:19:51.953Z,100
2017-10-09T02:20:54.380Z,100
2017-10-09T02:21:56.798Z,100
2017-10-09T02:22:59.222Z,100
2017-10-09T02:24:01.646Z,100
2017-10-09T02:25:04.081Z,100
2017-10-09T02:26:06.500Z,100
2017-10-09T02:27:09.286Z,100
2017-10-09T02:28:12.043Z,100
2017-10-09T02:29:14.470Z,100
2017-10-09T02:30:16.897Z,100
2017-10-09T02:31:19.652Z,100
2017-10-09T02:32:22.069Z,100
2017-10-09T02:33:24.497Z,100
2017-10-09T02:34:27.259Z,100
2017-10-09T02:35:29.686Z,100
2017-10-09T02:36:32.120Z,100
2017-10-09T02:37:34.518Z,100
2017-10-09T02:38:36.947Z,100
2017-10-09T02:39:39.368Z,100
2017-10-09T02:40:41.784Z,100
2017-10-09T02:41:44.557Z,100
2017-10-09T02:42:46.981Z,100
2017-10-09T02:43:49.767Z,100
2017-10-09T02:44:53.220Z,100
2017-10-09T02:45:55.638Z,100
2017-10-09T02:46:58.052Z,100
2017-10-09T02:48:00.472Z,100
2017-10-09T02:49:02.899Z,100
2017-10-09T02:50:05.332Z,100
2017-10-09T02:51:07.742Z,100
2017-10-09T02:52:10.506Z,100
2017-10-09T02:53:13.270Z,100
2017-10-09T02:54:15.695Z,100
2017-10-09T02:55:18.114Z,100
2017-10-09T02:56:20.528Z,100
2017-10-09T02:57:22.942Z,100
2017-10-09T02:58:25.368Z,100
2017-10-09T02:59:27.788Z,100
2017-10-09T03:00:30.218Z,100
2017-10-09T03:01:32.647Z,100
2017-10-09T03:02:35.062Z,100
2017-10-09T03:03:37.478Z,100
2017-10-09T03:04:39.903Z,100
2017-10-09T03:05:42.332Z,100
2017-10-09T03:06:44.752Z,100
2017-10-09T03:07:47.178Z,100
2017-10-09T03:08:49.591Z,100
2017-10-09T03:09:52.022Z,100
2017-10-09T03:10:54.450Z,100
2017-10-09T03:11:56.865Z,100
2017-10-09T03:12:59.286Z,100
2017-10-09T03:14:01.709Z,100
2017-10-09T03:15:04.481Z,100
2017-10-09T03:16:07.266Z,100
2017-10-09T03:17:09.684Z,100
2017-10-09T03:18:12.114Z,100
2017-10-09T03:19:14.541Z,100
2017-10-09T03:20:16.967Z,100
2017-10-09T03:21:19.386Z,100
2017-10-09T03:22:21.805Z,100
2017-10-09T03:23:24.216Z,100
2017-10-09T03:24:26.656Z,100
2017-10-09T03:25:29.071Z,100
2017-10-09T03:26:31.487Z,100
2017-10-09T03:27:33.908Z,100
2017-10-09T03:28:36.330Z,100
2017-10-09T03:29:38.758Z,100
2017-10-09T03:30:41.181Z,100
2017-10-09T03:31:43.944Z,100
2017-10-09T03:32:46.366Z,100
2017-10-09T03:33:48.781Z,100
2017-10-09T03:34:51.208Z,100
2017-10-09T03:35:53.642Z,100
2017-10-09T03:36:56.058Z,100
2017-10-09T03:37:58.486Z,100
2017-10-09T03:39:00.906Z,100
2017-10-09T03:40:03.334Z,100
2017-10-09T03:41:05.760Z,100
2017-10-09T03:42:08.182Z,100
2017-10-09T03:43:10.941Z,100
2017-10-09T03:44:13.370Z,100
2017-10-09T03:45:15.795Z,100
2017-10-09T03:46:18.221Z,100
2017-10-09T03:47:20.648Z,100
2017-10-09T03:48:23.057Z,100
2017-10-09T03:49:25.484Z,100
2017-10-09T03:50:27.910Z,100
2017-10-09T03:51:30.316Z,100
2017-10-09T03:52:32.729Z,100
2017-10-09T03:53:35.152Z,100
2017-10-09T03:54:37.913Z,100
2017-10-09T03:55:40.338Z,100
2017-10-09T03:56:42.762Z,100
2017-10-09T03:57:45.168Z,100
2017-10-09T03:58:47.608Z,100
2017-10-09T03:59:50.021Z,100
2017-10-09T04:00:52.438Z,100
2017-10-09T04:01:54.865Z,100
2017-10-09T04:02:57.288Z,100
2017-10-09T04:03:59.709Z,100
2017-10-09T04:05:02.135Z,100
2017-10-09T04:06:04.556Z,100
2017-10-09T04:07:06.986Z,100
2017-10-09T04:08:09.745Z,100
2017-10-09T04:09:12.157Z,100
2017-10-09T04:10:14.582Z,100
2017-10-09T04:11:17.003Z,100
2017-10-09T04:12:19.424Z,100
2017-10-09T04:13:21.845Z,100
2017-10-09T04:14:24.251Z,100
2017-10-09T04:15:26.676Z,100
2017-10-09T04:16:29.103Z,100
2017-10-09T04:17:31.526Z,100
2017-10-09T04:18:33.946Z,100
2017-10-09T04:19:36.359Z,100
2017-10-09T04:20:38.774Z,100
2017-10-09T04:21:41.205Z,100
2017-10-09T04:22:43.967Z,100
2017-10-09T04:23:46.381Z,100
2017-10-09T04:24:48.808Z,100
2017-10-09T04:25:51.235Z,100
2017-10-09T04:26:53.992Z,100
2017-10-09T04:27:56.413Z,100
2017-10-09T04:28:58.834Z,100
2017-10-09T04:30:01.252Z,100
2017-10-09T04:31:03.673Z,100
2017-10-09T04:32:06.100Z,100
2017-10-09T04:33:08.521Z,100
2017-10-09T04:34:10.953Z,100
2017-10-09T04:35:13.369Z,100
2017-10-09T04:36:15.796Z,100
2017-10-09T04:37:18.217Z,100
2017-10-09T04:38:20.979Z,100
2017-10-09T04:39:23.402Z,100
2017-10-09T04:40:25.813Z,100
2017-10-09T04:41:28.227Z,100
2017-10-09T04:42:31.339Z,100
2017-10-09T04:43:33.756Z,100
2017-10-09T04:44:36.177Z,100
2017-10-09T04:45:38.590Z,100
2017-10-09T04:46:41.017Z,100
2017-10-09T04:47:43.441Z,100
2017-10-09T04:48:45.861Z,100
2017-10-09T04:49:48.635Z,100
2017-10-09T04:50:51.059Z,100
2017-10-09T04:51:53.818Z,100
2017-10-09T04:52:56.247Z,100
2017-10-09T04:53:58.674Z,100
2017-10-09T04:55:01.092Z,100
2017-10-09T04:56:03.858Z,100
2017-10-09T04:57:06.282Z,100
2017-10-09T04:58:08.701Z,100
2017-10-09T04:59:11.114Z,100
2017-10-09T05:00:13.544Z,100
2017-10-09T05:01:15.967Z,100
2017-10-09T05:02:18.386Z,100
2017-10-09T05:03:20.813Z,100
2017-10-09T05:04:23.234Z,100
2017-10-09T05:05:25.645Z,100
2017-10-09T05:06:28.071Z,100
2017-10-09T05:07:30.484Z,100
2017-10-09T05:08:32.906Z,100
2017-10-09T05:09:35.320Z,100
2017-10-09T05:10:37.741Z,100
2017-10-09T05:11:40.183Z,100
2017-10-09T05:12:42.622Z,100
2017-10-09T05:13:45.026Z,100
2017-10-09T05:14:47.446Z,100
2017-10-09T05:15:49.868Z,100
2017-10-09T05:16:52.286Z,100
2017-10-09T05:17:54.706Z,100
2017-10-09T05:18:57.130Z,100
2017-10-09T05:19:59.542Z,100
2017-10-09T05:21:01.975Z,100
2017-10-09T05:22:04.393Z,100
2017-10-09T05:23:06.813Z,100
2017-10-09T05:24:09.230Z,100
2017-10-09T05:25:11.654Z,100
2017-10-09T05:26:14.073Z,100
2017-10-09T05:27:16.487Z,100
2017-10-09T05:28:18.910Z,100
2017-10-09T05:29:21.677Z,100
2017-10-09T05:30:24.085Z,100
2017-10-09T05:31:26.510Z,100
2017-10-09T05:32:28.942Z,100
2017-10-09T05:33:31.358Z,100
2017-10-09T05:34:33.774Z,100
2017-10-09T05:35:36.198Z,100
2017-10-09T05:36:38.613Z,100
2017-10-09T05:37:41.040Z,100
2017-10-09T05:38:43.460Z,100
2017-10-09T05:39:45.866Z,100
2017-10-09T05:40:48.645Z,100
2017-10-09T05:41:51.076Z,100
2017-10-09T05:42:53.490Z,100
2017-10-09T05:43:55.905Z,100
2017-10-09T05:44:58.311Z,100
2017-10-09T05:46:00.731Z,100
2017-10-09T05:47:03.163Z,100
2017-10-09T05:48:05.582Z,100
2017-10-09T05:49:07.997Z,100
2017-10-09T05:50:10.417Z,100
2017-10-09T05:51:12.840Z,100
2017-10-09T05:52:15.266Z,100
2017-10-09T05:53:17.682Z,100
2017-10-09T05:54:20.092Z,100
2017-10-09T05:55:22.507Z,100
2017-10-09T05:56:24.936Z,100
2017-10-09T05:57:27.351Z,100
2017-10-09T05:58:29.770Z,100
2017-10-09T05:59:32.198Z,100
2017-10-09T06:00:34.621Z,100
2017-10-09T06:01:37.038Z,100
2017-10-09T06:02:39.454Z,100
2017-10-09T06:03:42.219Z,100
2017-10-09T06:04:44.641Z,100
2017-10-09T06:05:47.056Z,100
2017-10-09T06:06:49.470Z,100
2017-10-09T06:07:51.890Z,100
2017-10-09T06:08:54.316Z,100
2017-10-09T06:09:56.743Z,100
2017-10-09T06:10:59.157Z,100
2017-10-09T06:12:01.578Z,100
2017-10-09T06:13:04.011Z,100
2017-10-09T06:14:06.438Z,100
2017-10-09T06:15:08.859Z,100
2017-10-09T06:16:11.280Z,100
2017-10-09T06:17:13.709Z,100
2017-10-09T06:18:16.123Z,100
2017-10-09T06:19:18.544Z,100
2017-10-09T06:20:21.299Z,100
2017-10-09T06:21:24.061Z,100
2017-10-09T06:22:26.499Z,100
2017-10-09T06:23:28.920Z,100
2017-10-09T06:24:31.334Z,100
2017-10-09T06:25:33.752Z,100
2017-10-09T06:26:36.182Z,100
2017-10-09T06:27:38.584Z,100
2017-10-09T06:28:41.012Z,100
2017-10-09T06:29:43.441Z,100
2017-10-09T06:30:45.857Z,100
2017-10-09T06:31:48.278Z,100
2017-10-09T06:32:50.697Z,100
2017-10-09T06:33:53.117Z,100
2017-10-09T06:34:55.551Z,100
2017-10-09T06:35:57.964Z,100
2017-10-09T06:37:00.383Z,100
2017-10-09T06:38:03.160Z,100
2017-10-09T06:39:05.579Z,100
2017-10-09T06:40:08.008Z,100
2017-10-09T06:41:10.427Z,100
2017-10-09T06:42:12.848Z,100
2017-10-09T06:43:15.273Z,100
2017-10-09T06:44:17.695Z,100
2017-10-09T06:45:20.456Z,100
2017-10-09T06:46:22.878Z,100
2017-10-09T06:47:25.295Z,100
2017-10-09T06:48:27.726Z,100
2017-10-09T06:49:30.138Z,100
2017-10-09T06:50:32.562Z,100
2017-10-09T06:51:34.990Z,100
2017-10-09T06:52:37.410Z,100
2017-10-09T06:53:39.836Z,100
2017-10-09T06:54:42.260Z,100
2017-10-09T06:55:44.672Z,100
2017-10-09T06:56:47.099Z,100
2017-10-09T06:57:49.514Z,100
2017-10-09T06:58:51.935Z,100
2017-10-09T06:59:54.345Z,100
2017-10-09T07:00:56.782Z,100
2017-10-09T07:01:59.200Z,100
2017-10-09T07:03:01.623Z,100
2017-10-09T07:04:04.048Z,100
2017-10-09T07:05:06.785Z,100
2017-10-09T07:06:09.749Z,100
2017-10-09T07:07:12.180Z,100
2017-10-09T07:08:14.592Z,100
2017-10-09T07:09:17.020Z,100
2017-10-09T07:10:19.452Z,100
2017-10-09T07:11:21.872Z,100
2017-10-09T07:12:24.304Z,100
2017-10-09T07:13:26.719Z,100
2017-10-09T07:14:29.144Z,100
2017-10-09T07:15:31.570Z,100
2017-10-09T07:16:33.988Z,100
2017-10-09T07:17:36.750Z,100
2017-10-09T07:18:39.185Z,100
2017-10-09T07:19:41.598Z,100
2017-10-09T07:20:44.031Z,99
2017-10-09T07:21:46.798Z,99
2017-10-09T07:22:49.226Z,99
2017-10-09T07:23:51.652Z,98
2017-10-09T07:24:54.074Z,98
2017-10-09T07:25:56.500Z,97
2017-10-09T07:26:58.919Z,97
2017-10-09T07:28:01.339Z,96
2017-10-09T07:29:03.765Z,96
2017-10-09T07:30:06.197Z,95
2017-10-09T07:31:08.616Z,95
2017-10-09T07:32:11.042Z,95
2017-10-09T07:33:13.462Z,94
2017-10-09T07:34:15.879Z,94
2017-10-09T07:35:18.313Z,94
2017-10-09T07:36:21.065Z,93
2017-10-09T07:37:23.496Z,93
2017-10-09T07:38:25.925Z,93
2017-10-09T07:39:28.346Z,92
2017-10-09T07:40:30.771Z,92
2017-10-09T07:41:33.192Z,92
2017-10-09T07:42:35.613Z,92
2017-10-09T07:43:38.053Z,91
2017-10-09T07:44:40.482Z,91
2017-10-09T07:45:42.897Z,91
2017-10-09T07:46:45.327Z,91
2017-10-09T07:47:48.134Z,91
2017-10-09T07:48:50.562Z,90
2017-10-09T07:49:52.997Z,90
2017-10-09T07:50:55.422Z,90
2017-10-09T07:51:57.847Z,90
2017-10-09T07:53:00.303Z,90
2017-10-09T07:54:02.728Z,90
2017-10-09T07:55:05.148Z,91
2017-10-09T07:56:07.577Z,91
2017-10-09T07:57:10.005Z,91
2017-10-09T07:58:12.444Z,91
2017-10-09T07:59:15.201Z,91
2017-10-09T08:00:17.642Z,91
2017-10-09T08:01:20.409Z,91
2017-10-09T08:02:22.849Z,91
2017-10-09T08:03:25.280Z,91
2017-10-09T08:04:27.711Z,91
2017-10-09T08:05:30.143Z,90
2017-10-09T08:06:32.578Z,90
2017-10-09T08:07:35.015Z,91
2017-10-09T08:08:37.444Z,90
2017-10-09T08:09:39.863Z,91
2017-10-09T08:10:42.300Z,91
2017-10-09T08:11:44.718Z,90
2017-10-09T08:12:47.147Z,90
2017-10-09T08:13:49.576Z,91
2017-10-09T08:14:52.009Z,91
2017-10-09T08:15:54.443Z,92
2017-10-09T08:16:56.880Z,92
2017-10-09T08:17:59.642Z,91
2017-10-09T08:19:02.083Z,91
2017-10-09T08:20:04.509Z,91
2017-10-09T08:21:06.934Z,91
2017-10-09T08:22:09.707Z,91
2017-10-09T08:23:12.134Z,91
2017-10-09T08:24:14.569Z,91
2017-10-09T08:25:16.997Z,91
2017-10-09T08:26:19.441Z,91
2017-10-09T08:27:21.866Z,91
2017-10-09T08:28:24.632Z,91
2017-10-09T08:29:27.065Z,91
2017-10-09T08:30:29.504Z,92
2017-10-09T08:31:31.924Z,92
2017-10-09T08:32:34.362Z,92
2017-10-09T08:33:36.776Z,92
2017-10-09T08:34:39.207Z,91
2017-10-09T08:35:41.642Z,90
2017-10-09T08:36:44.077Z,91
2017-10-09T08:37:46.504Z,91
2017-10-09T08:38:48.930Z,91
2017-10-09T08:39:51.369Z,90
2017-10-09T08:40:53.806Z,90
2017-10-09T08:41:56.234Z,89
2017-10-09T08:42:58.650Z,89
2017-10-09T08:44:01.087Z,89
2017-10-09T08:45:03.522Z,90
2017-10-09T08:46:05.957Z,90
2017-10-09T08:47:08.391Z,90
2017-10-09T08:48:10.823Z,91
2017-10-09T08:49:13.246Z,90
2017-10-09T08:50:15.683Z,90
2017-10-09T08:51:18.106Z,90
2017-10-09T08:52:20.529Z,90
2017-10-09T08:53:22.963Z,90
2017-10-09T08:54:25.394Z,90
2017-10-09T08:55:27.825Z,89
2017-10-09T08:56:30.265Z,89
2017-10-09T08:57:32.708Z,88
2017-10-09T08:58:35.143Z,89
2017-10-09T08:59:37.563Z,90
2017-10-09T09:00:39.993Z,89
2017-10-09T09:01:42.429Z,89
2017-10-09T09:02:44.854Z,88
2017-10-09T09:03:47.278Z,88
2017-10-09T09:04:50.050Z,88
2017-10-09T09:05:54.272Z,88
2017-10-09T09:06:56.721Z,87
2017-10-09T09:07:59.150Z,88
2017-10-09T09:09:01.941Z,88
2017-10-09T09:10:04.372Z,88
2017-10-09T09:11:06.805Z,88
2017-10-09T09:12:09.231Z,88
2017-10-09T09:13:11.667Z,86
2017-10-09T09:14:14.114Z,85
2017-10-09T09:15:16.547Z,85
2017-10-09T09:16:18.997Z,84
2017-10-09T09:17:21.420Z,84
2017-10-09T09:18:23.850Z,85
2017-10-09T09:19:26.282Z,85
2017-10-09T09:20:28.709Z,83
2017-10-09T09:21:31.150Z,83
2017-10-09T09:22:33.584Z,84
2017-10-09T09:23:36.004Z,84
2017-10-09T09:24:38.444Z,84
2017-10-09T09:25:40.877Z,84
2017-10-09T09:26:43.310Z,84
2017-10-09T09:27:45.743Z,83
2017-10-09T09:28:48.181Z,83
2017-10-09T09:29:50.957Z,83
2017-10-09T09:30:53.385Z,82
2017-10-09T09:31:55.859Z,83
2017-10-09T09:32:58.287Z,84
2017-10-09T09:34:00.725Z,85
2017-10-09T09:35:03.158Z,85
2017-10-09T09:36:05.594Z,85
2017-10-09T09:37:08.028Z,86
2017-10-09T09:38:10.814Z,86
2017-10-09T09:39:13.234Z,85
2017-10-09T09:40:15.664Z,86
2017-10-09T09:41:18.094Z,85
2017-10-09T09:42:20.519Z,84
2017-10-09T09:43:22.941Z,85
2017-10-09T09:44:25.379Z,84
2017-10-09T09:45:27.818Z,84
2017-10-09T09:46:30.244Z,82
2017-10-09T09:47:32.680Z,82
2017-10-09T09:48:35.116Z,82
2017-10-09T09:49:37.545Z,81
2017-10-09T09:50:39.989Z,80
2017-10-09T09:51:42.413Z,79
2017-10-09T09:52:44.845Z,79
2017-10-09T09:53:47.622Z,81
2017-10-09T09:54:50.052Z,80
2017-10-09T09:55:52.479Z,80
2017-10-09T09:56:54.913Z,81
2017-10-09T09:57:57.340Z,80
2017-10-09T09:58:59.764Z,80
2017-10-09T10:00:02.206Z,81
2017-10-09T10:01:04.644Z,80
2017-10-09T10:02:07.078Z,82
2017-10-09T10:03:09.516Z,81
2017-10-09T10:04:11.955Z,82
2017-10-09T10:05:14.390Z,82
2017-10-09T10:06:16.837Z,81
2017-10-09T10:07:19.264Z,83
2017-10-09T10:08:21.686Z,83
2017-10-09T10:09:24.510Z,84
2017-10-09T10:10:27.286Z,84
2017-10-09T10:11:29.742Z,83
2017-10-09T10:12:32.175Z,83
2017-10-09T10:13:34.589Z,84
2017-10-09T10:14:37.025Z,84
2017-10-09T10:15:39.801Z,85
2017-10-09T10:16:42.232Z,84
2017-10-09T10:17:45.010Z,85
2017-10-09T10:18:47.439Z,85
2017-10-09T10:19:49.870Z,85
2017-10-09T10:20:52.312Z,85
2017-10-09T10:21:55.119Z,85
2017-10-09T10:22:57.542Z,85
2017-10-09T10:23:59.969Z,86
2017-10-09T10:25:02.407Z,85
2017-10-09T10:26:05.182Z,86
2017-10-09T10:27:07.608Z,86
2017-10-09T10:28:10.047Z,86
2017-10-09T10:29:12.484Z,85
2017-10-09T10:30:14.900Z,86
2017-10-09T10:31:17.343Z,85
2017-10-09T10:32:20.105Z,85
2017-10-09T10:33:22.541Z,85
2017-10-09T10:34:25.312Z,85
2017-10-09T10:35:27.750Z,84
2017-10-09T10:36:30.174Z,85
2017-10-09T10:37:32.611Z,84
2017-10-09T10:38:35.036Z,84
2017-10-09T10:39:37.470Z,84
2017-10-09T10:40:39.896Z,84
2017-10-09T10:41:42.330Z,85
2017-10-09T10:42:45.096Z,84
2017-10-09T10:43:47.528Z,84
2017-10-09T10:44:49.949Z,83
2017-10-09T10:45:52.389Z,83
2017-10-09T10:46:54.817Z,83
2017-10-09T10:47:57.256Z,82
2017-10-09T10:48:59.695Z,83
2017-10-09T10:50:02.135Z,82
2017-10-09T10:51:04.568Z,82
2017-10-09T10:52:06.999Z,82
2017-10-09T10:53:09.427Z,82
2017-10-09T10:54:11.858Z,81
2017-10-09T10:55:14.293Z,81
2017-10-09T10:56:16.736Z,81
2017-10-09T10:57:19.168Z,81
2017-10-09T10:58:21.601Z,81
2017-10-09T10:59:24.033Z,81
2017-10-09T11:00:26.466Z,82
2017-10-09T11:01:28.891Z,81
2017-10-09T11:02:31.668Z,80
2017-10-09T11:03:34.087Z,81
2017-10-09T11:04:36.522Z,81
2017-10-09T11:05:38.954Z,81
2017-10-09T11:06:41.389Z,81
2017-10-09T11:07:43.819Z,80
2017-10-09T11:08:46.249Z,79
2017-10-09T11:09:48.678Z,79
2017-10-09T11:10:51.126Z,78
2017-10-09T11:11:53.547Z,76
2017-10-09T11:12:55.977Z,75
2017-10-09T11:13:58.411Z,75
2017-10-09T11:15:00.848Z,77
2017-10-09T11:16:03.624Z,75
2017-10-09T11:17:06.068Z,76
2017-10-09T11:18:08.492Z,76
2017-10-09T11:19:10.939Z,78
2017-10-09T11:20:13.368Z,77
2017-10-09T11:21:15.801Z,77
2017-10-09T11:22:18.236Z,77
2017-10-09T11:23:20.670Z,76
2017-10-09T11:24:23.111Z,76
2017-10-09T11:25:25.548Z,76
2017-10-09T11:26:27.991Z,76
2017-10-09T11:27:30.424Z,76
2017-10-09T11:28:33.196Z,77
2017-10-09T11:29:35.629Z,76
2017-10-09T11:30:38.068Z,76
2017-10-09T11:31:40.494Z,76
2017-10-09T11:32:42.931Z,77
2017-10-09T11:33:45.365Z,78
2017-10-09T11:34:47.807Z,78
2017-10-09T11:35:50.241Z,78
2017-10-09T11:36:52.682Z,78
2017-10-09T11:37:55.118Z,79
2017-10-09T11:38:57.560Z,80
2017-10-09T11:39:59.996Z,81
2017-10-09T11:41:02.436Z,79
2017-10-09T11:42:04.877Z,80
2017-10-09T11:43:07.318Z,81
2017-10-09T11:44:09.749Z,80
2017-10-09T11:45:12.537Z,82
2017-10-09T11:46:14.960Z,83
2017-10-09T11:47:17.398Z,83
2017-10-09T11:48:19.838Z,83
2017-10-09T11:49:22.272Z,83
2017-10-09T11:50:24.694Z,84
2017-10-09T11:51:27.133Z,83
2017-10-09T11:52:29.569Z,83
2017-10-09T11:53:32.016Z,84
2017-10-09T11:54:34.461Z,83
2017-10-09T11:55:36.896Z,84
2017-10-09T11:56:39.324Z,86
2017-10-09T11:57:41.765Z,86
2017-10-09T11:58:44.205Z,87
2017-10-09T11:59:46.633Z,85
2017-10-09T12:00:49.408Z,85
2017-10-09T12:01:51.837Z,84
2017-10-09T12:02:54.268Z,85
2017-10-09T12:03:56.715Z,86
2017-10-09T12:04:59.142Z,86
2017-10-09T12:06:01.576Z,86
2017-10-09T12:07:04.006Z,86
2017-10-09T12:08:06.788Z,87
2017-10-09T12:09:09.209Z,87
2017-10-09T12:10:11.645Z,86
2017-10-09T12:11:14.079Z,86
2017-10-09T12:12:16.515Z,86
2017-10-09T12:13:18.952Z,86
2017-10-09T12:14:21.387Z,87
2017-10-09T12:15:24.152Z,86
2017-10-09T12:16:26.585Z,85
2017-10-09T12:17:29.024Z,86
2017-10-09T12:18:31.456Z,85
2017-10-09T12:19:33.879Z,86
2017-10-09T12:20:36.310Z,85
2017-10-09T12:21:39.084Z,85
2017-10-09T12:22:41.522Z,85
2017-10-09T12:23:44.301Z,86
2017-10-09T12:24:46.729Z,83
2017-10-09T12:25:49.159Z,84
2017-10-09T12:26:51.585Z,83
2017-10-09T12:27:54.020Z,82
2017-10-09T12:28:56.464Z,82
2017-10-09T12:29:58.892Z,82
2017-10-09T12:31:01.323Z,78
2017-10-09T12:32:03.756Z,77
2017-10-09T12:33:06.194Z,76
2017-10-09T12:34:08.627Z,77
2017-10-09T12:35:11.070Z,78
2017-10-09T12:36:13.832Z,77
2017-10-09T12:37:16.270Z,75
2017-10-09T12:38:18.705Z,74
2017-10-09T12:39:21.147Z,76
2017-10-09T12:40:23.582Z,75
2017-10-09T12:41:26.349Z,74
2017-10-09T12:42:29.138Z,73
2017-10-09T12:43:31.581Z,72
2017-10-09T12:44:34.383Z,73
2017-10-09T12:45:37.015Z,71
2017-10-09T12:46:39.450Z,71
2017-10-09T12:47:41.888Z,72
2017-10-09T12:48:44.331Z,71
2017-10-09T12:49:47.169Z,70
2017-10-09T12:50:49.589Z,70
2017-10-09T12:51:52.030Z,70
2017-10-09T12:52:54.483Z,70
2017-10-09T12:53:56.916Z,70
2017-10-09T12:54:59.343Z,70
2017-10-09T12:56:01.782Z,69
2017-10-09T12:57:04.221Z,69
2017-10-09T12:58:06.664Z,68
2017-10-09T12:59:09.110Z,67
2017-10-09T13:00:11.539Z,68
2017-10-09T13:01:13.982Z,68
2017-10-09T13:02:16.432Z,67
2017-10-09T13:03:18.863Z,67
2017-10-09T13:04:21.295Z,66
2017-10-09T13:05:23.754Z,65
2017-10-09T13:06:26.179Z,66
2017-10-09T13:07:28.632Z,69
2017-10-09T13:08:31.429Z,69
2017-10-09T13:09:33.859Z,68
2017-10-09T13:10:36.365Z,66
2017-10-09T13:11:39.111Z,65
2017-10-09T13:12:41.865Z,67
2017-10-09T13:13:46.222Z,67
2017-10-09T13:14:50.457Z,69
2017-10-09T13:15:56.371Z,69
2017-10-09T13:17:01.971Z,69
2017-10-09T13:18:06.382Z,68
2017-10-09T13:19:12.122Z,67
2017-10-09T13:20:18.496Z,68
2017-10-09T13:21:24.246Z,66
2017-10-09T13:22:28.315Z,65
2017-10-09T13:23:32.876Z,65
2017-10-09T13:24:37.377Z,66
2017-10-09T13:25:42.758Z,67
2017-10-09T13:26:47.620Z,67
2017-10-09T13:27:50.083Z,66
2017-10-09T13:28:52.583Z,68
2017-10-09T13:29:55.226Z,68
2017-10-09T13:30:57.855Z,68
2017-10-09T13:32:00.491Z,67
2017-10-09T13:33:03.132Z,67
2017-10-09T13:34:05.566Z,68
2017-10-09T13:35:08.350Z,67
2017-10-09T13:36:10.780Z,69
2017-10-09T13:37:13.231Z,70
2017-10-09T13:38:15.672Z,70
2017-10-09T13:39:18.110Z,69
2017-10-09T13:40:20.539Z,70
2017-10-09T13:41:22.982Z,70
2017-10-09T13:42:25.412Z,71
2017-10-09T13:43:27.854Z,70
2017-10-09T13:44:30.290Z,71
2017-10-09T13:45:32.727Z,72
2017-10-09T13:46:35.171Z,70
2017-10-09T13:47:37.612Z,71
2017-10-09T13:48:40.058Z,71
2017-10-09T13:49:42.521Z,71
2017-10-09T13:50:45.014Z,71
2017-10-09T13:51:47.460Z,70
2017-10-09T13:52:49.909Z,69
2017-10-09T13:53:52.367Z,71
2017-10-09T13:54:54.883Z,72
2017-10-09T13:55:57.509Z,71
2017-10-09T13:57:00.242Z,69
2017-10-09T13:58:02.929Z,70
2017-10-09T13:59:05.780Z,71
2017-10-09T14:00:08.256Z,72
2017-10-09T14:01:10.844Z,72
2017-10-09T14:02:13.471Z,74
2017-10-09T14:03:16.011Z,74
2017-10-09T14:04:18.517Z,73
2017-10-09T14:05:21.285Z,73
2017-10-09T14:06:23.714Z,71
2017-10-09T14:07:26.165Z,72
2017-10-09T14:08:28.607Z,72
2017-10-09T14:09:31.051Z,74
2017-10-09T14:10:33.490Z,75
2017-10-09T14:11:35.931Z,73
2017-10-09T14:12:38.365Z,74
2017-10-09T14:13:40.815Z,75
2017-10-09T14:14:43.249Z,75
2017-10-09T14:15:45.688Z,73
2017-10-09T14:16:48.458Z,72
2017-10-09T14:17:50.898Z,74
2017-10-09T14:18:53.331Z,73
2017-10-09T14:19:55.779Z,72
2017-10-09T14:20:58.345Z,72
2017-10-09T14:22:01.196Z,73
2017-10-09T14:23:03.631Z,72
2017-10-09T14:24:06.091Z,73
2017-10-09T14:25:08.539Z,74
2017-10-09T14:26:11.668Z,75
2017-10-09T14:27:14.110Z,75
2017-10-09T14:28:16.554Z,76
2017-10-09T14:29:19.361Z,76
2017-10-09T14:30:21.803Z,77
2017-10-09T14:39:47.963Z,80
2017-10-09T14:40:50.384Z,81
2017-10-09T14:41:52.819Z,80
2017-10-09T14:42:55.262Z,81
2017-10-09T14:43:57.699Z,82